createdAt,value
2019-05-02T00:01:51.205Z,20.00
2019-05-02T00:04:21.321Z,18.98
2019-05-02T00:07:05.076Z,18.00
2019-05-02T00:09:34.473Z,16.70
2019-05-02T00:12:04.527Z,17.87
2019-05-02T00:14:34.249Z,17.17
2019-05-02T00:17:03.341Z,19.73
2019-05-02T00:19:32.256Z,23.62
2019-05-02T00:22:01.228Z,16.83
2019-05-02T00:24:33.997Z,21.73
2019-05-02T00:27:03.136Z,18.70
2019-05-02T00:29:32.260Z,18.25
2019-05-02T00:32:01.324Z,22.30
2019-05-02T00:34:31.344Z,19.03
2019-05-02T00:37:00.528Z,18.77
2019-05-02T00:39:29.546Z,22.93
2019-05-02T00:42:11.477Z,23.38
2019-05-02T00:44:29.268Z,20.33
2019-05-02T00:47:06.105Z,16.17
2019-05-02T00:49:35.530Z,19.47
2019-05-02T00:52:04.688Z,20.30
2019-05-02T00:54:33.716Z,22.33
2019-05-02T00:57:02.677Z,25.07
2019-05-02T00:59:31.656Z,21.57
2019-05-02T01:02:16.756Z,18.97
2019-05-02T01:04:46.962Z,25.60
2019-05-02T01:07:20.377Z,22.52
2019-05-02T01:09:48.059Z,24.90
2019-05-02T01:12:26.348Z,23.67
2019-05-02T01:14:47.828Z,20.77
2019-05-02T01:17:16.740Z,20.77
2019-05-02T01:19:47.138Z,24.07
2019-05-02T01:22:17.300Z,24.63
2019-05-02T01:24:46.348Z,19.27
2019-05-02T01:27:36.005Z,20.08
2019-05-02T01:30:27.521Z,25.97
2019-05-02T01:33:06.536Z,22.10
2019-05-02T01:35:40.549Z,22.30
2019-05-02T01:38:20.027Z,19.70
2019-05-02T01:40:53.315Z,20.52
2019-05-02T01:43:29.768Z,20.97
2019-05-02T01:45:58.851Z,23.02
2019-05-02T01:48:28.232Z,21.93
2019-05-02T01:50:59.487Z,19.13
2019-05-02T01:53:34.046Z,20.40
2019-05-02T01:55:59.418Z,24.80
2019-05-02T01:58:28.688Z,21.20
2019-05-02T02:00:57.678Z,20.00
2019-05-02T02:03:26.980Z,20.85
2019-05-02T02:05:55.950Z,22.35
2019-05-02T02:08:27.441Z,22.13
2019-05-02T02:10:58.264Z,24.55
2019-05-02T02:13:31.187Z,20.70
2019-05-02T02:16:00.258Z,21.25
2019-05-02T02:18:30.559Z,19.67
2019-05-02T02:21:10.244Z,19.23
2019-05-02T02:23:49.732Z,20.55
2019-05-02T02:26:19.926Z,21.23
2019-05-02T02:28:48.920Z,23.87
2019-05-02T02:31:20.061Z,21.55
2019-05-02T02:33:49.868Z,19.40
2019-05-02T02:36:30.153Z,21.40
2019-05-02T02:38:49.922Z,21.35
2019-05-02T02:41:18.982Z,20.30
2019-05-02T02:44:04.954Z,20.23
2019-05-02T02:46:37.966Z,20.37
2019-05-02T02:49:05.811Z,19.55
2019-05-02T02:51:34.820Z,19.52
2019-05-02T02:54:05.784Z,19.45
2019-05-02T02:56:40.530Z,22.02
2019-05-02T02:59:06.326Z,21.12
2019-05-02T03:01:35.389Z,18.75
2019-05-02T03:04:09.721Z,25.00
2019-05-02T03:06:38.345Z,18.90
2019-05-02T03:09:06.572Z,22.27
2019-05-02T03:11:44.263Z,19.87
2019-05-02T03:14:21.256Z,31.25
2019-05-02T03:16:50.337Z,19.85
2019-05-02T03:19:21.284Z,23.83
2019-05-02T03:22:00.830Z,25.10
2019-05-02T03:24:26.788Z,19.40
2019-05-02T03:26:58.324Z,20.35
2019-05-02T03:29:39.657Z,26.17
2019-05-02T03:32:14.635Z,26.07
2019-05-02T03:34:45.491Z,22.20
2019-05-02T03:37:03.276Z,19.62
2019-05-02T03:39:30.137Z,21.87
2019-05-02T03:42:02.764Z,21.90
2019-05-02T03:44:30.588Z,23.10
2019-05-02T03:47:02.060Z,25.40
2019-05-02T03:49:30.921Z,20.60
2019-05-02T03:52:03.120Z,23.27
2019-05-02T03:54:31.061Z,21.33
2019-05-02T03:56:59.959Z,23.18
2019-05-02T03:59:38.760Z,28.45
2019-05-02T04:02:00.218Z,23.77
2019-05-02T04:04:29.988Z,22.30
2019-05-02T04:07:01.111Z,25.23
2019-05-02T04:09:38.882Z,25.10
2019-05-02T04:12:11.717Z,24.40
2019-05-02T04:14:38.596Z,29.18
2019-05-02T04:17:09.098Z,30.55
2019-05-02T04:19:38.192Z,21.57
2019-05-02T04:22:11.759Z,22.43
2019-05-02T04:24:38.216Z,24.80
2019-05-02T04:27:07.136Z,22.87
2019-05-02T04:29:36.633Z,21.85
2019-05-02T04:32:11.441Z,22.37
2019-05-02T04:34:36.611Z,22.20
2019-05-02T04:37:06.597Z,21.30
2019-05-02T04:39:39.080Z,26.10
2019-05-02T04:42:16.003Z,23.87
2019-05-02T04:44:52.774Z,24.67
2019-05-02T04:47:16.919Z,25.53
2019-05-02T04:49:39.752Z,23.73
2019-05-02T04:52:12.205Z,19.73
2019-05-02T04:54:40.192Z,24.83
2019-05-02T04:57:10.040Z,24.03
2019-05-02T05:00:05.636Z,26.97
2019-05-02T05:02:30.843Z,23.70
2019-05-02T05:04:58.810Z,24.70
2019-05-02T05:07:31.099Z,27.20
2019-05-02T05:10:02.984Z,22.83
2019-05-02T05:12:32.590Z,19.13
2019-05-02T05:15:00.474Z,19.33
2019-05-02T05:17:32.701Z,27.27
2019-05-02T05:20:00.309Z,23.17
2019-05-02T05:22:38.599Z,25.03
2019-05-02T05:25:12.251Z,22.67
2019-05-02T05:27:39.174Z,22.17
2019-05-02T05:30:15.215Z,22.73
2019-05-02T05:32:39.266Z,24.20
2019-05-02T05:35:12.755Z,27.17
2019-05-02T05:37:43.362Z,21.90
2019-05-02T05:40:12.004Z,21.27
2019-05-02T05:42:41.078Z,21.93
2019-05-02T05:45:13.779Z,22.10
2019-05-02T05:47:40.889Z,19.83
2019-05-02T05:50:09.964Z,25.00
2019-05-02T05:52:42.368Z,23.73
2019-05-02T05:55:12.782Z,22.33
2019-05-02T05:57:40.303Z,19.97
2019-05-02T06:00:18.657Z,22.73
2019-05-02T06:02:53.013Z,23.80
2019-05-02T06:05:13.792Z,21.03
2019-05-02T06:07:44.951Z,21.67
2019-05-02T06:10:14.540Z,20.50
2019-05-02T06:12:46.645Z,23.60
2019-05-02T06:15:16.994Z,19.07
2019-05-02T06:17:48.619Z,22.70
2019-05-02T06:20:19.549Z,25.73
2019-05-02T06:22:54.977Z,21.90
2019-05-02T06:25:33.788Z,19.90
2019-05-02T06:28:00.252Z,20.03
2019-05-02T06:30:31.200Z,23.73
2019-05-02T06:33:04.138Z,22.07
2019-05-02T06:35:35.777Z,23.10
2019-05-02T06:38:06.749Z,19.93
2019-05-02T06:40:39.320Z,20.80
2019-05-02T06:43:11.412Z,22.00
2019-05-02T06:45:43.399Z,23.17
2019-05-02T06:48:17.754Z,22.90
2019-05-02T06:50:47.306Z,20.07
2019-05-02T06:53:18.668Z,19.77
2019-05-02T06:55:50.434Z,26.13
2019-05-02T06:58:21.148Z,23.67
2019-05-02T07:00:58.442Z,23.20
2019-05-02T07:03:27.665Z,26.53
2019-05-02T07:06:02.647Z,21.47
2019-05-02T07:08:34.712Z,23.73
2019-05-02T07:11:06.651Z,23.53
2019-05-02T07:13:42.165Z,22.27
2019-05-02T07:16:37.511Z,22.97
2019-05-02T07:19:21.629Z,24.40
2019-05-02T07:21:58.431Z,23.10
2019-05-02T07:24:56.456Z,27.80
2019-05-02T07:27:33.107Z,23.77
2019-05-02T07:30:01.991Z,23.40
2019-05-02T07:32:33.203Z,20.23
2019-05-02T07:35:04.252Z,21.53
2019-05-02T07:37:35.831Z,23.73
2019-05-02T07:40:07.645Z,24.47
2019-05-02T07:42:41.773Z,27.50
2019-05-02T07:45:12.553Z,22.97
2019-05-02T07:47:44.407Z,20.00
2019-05-02T07:50:15.960Z,26.70
2019-05-02T07:52:49.267Z,23.90
2019-05-02T07:55:20.534Z,24.73
2019-05-02T07:57:51.705Z,22.97
2019-05-02T08:00:23.219Z,25.43
2019-05-02T08:02:57.981Z,24.67
2019-05-02T08:05:27.443Z,20.53
2019-05-02T08:07:59.002Z,24.07
2019-05-02T08:10:33.905Z,23.73
2019-05-02T08:13:04.834Z,27.83
2019-05-02T08:15:36.243Z,21.40
2019-05-02T08:18:07.432Z,22.73
2019-05-02T08:20:38.746Z,25.83
2019-05-02T08:23:13.437Z,21.23
2019-05-02T08:25:45.461Z,20.40
2019-05-02T08:28:23.903Z,24.53
2019-05-02T08:30:55.328Z,22.50
2019-05-02T08:33:28.773Z,20.47
2019-05-02T08:35:54.827Z,23.63
2019-05-02T08:38:23.785Z,23.37
2019-05-02T08:40:52.672Z,18.43
2019-05-02T08:43:21.610Z,23.00
2019-05-02T08:45:50.567Z,21.83
2019-05-02T08:48:22.407Z,19.30
2019-05-02T08:50:50.084Z,19.90
2019-05-02T08:53:20.309Z,21.27
2019-05-02T08:55:49.880Z,23.40
2019-05-02T08:58:18.791Z,22.27
2019-05-02T09:00:47.777Z,19.63
2019-05-02T09:03:16.730Z,19.90
2019-05-02T09:05:46.240Z,17.97
2019-05-02T09:08:16.752Z,18.50
2019-05-02T09:10:46.011Z,21.03
2019-05-02T09:13:17.718Z,22.00
2019-05-02T09:15:51.039Z,19.00
2019-05-02T09:18:15.992Z,16.57
2019-05-02T09:20:47.053Z,18.07
2019-05-02T09:23:15.440Z,16.87
2019-05-02T09:25:45.345Z,16.13
2019-05-02T09:28:17.070Z,15.77
2019-05-02T09:30:46.890Z,18.60
2019-05-02T09:33:18.317Z,20.13
2019-05-02T09:35:49.166Z,22.80
2019-05-02T09:38:22.106Z,28.70
2019-05-02T09:40:56.234Z,35.63
2019-05-02T09:43:29.251Z,24.17
2019-05-02T09:45:58.146Z,30.77
2019-05-02T09:48:28.822Z,26.23
2019-05-02T09:51:04.523Z,20.90
2019-05-02T09:53:32.983Z,26.23
2019-05-02T09:56:04.757Z,27.13
2019-05-02T09:58:35.747Z,25.10
2019-05-02T10:01:22.494Z,27.20
2019-05-02T10:03:53.704Z,26.53
2019-05-02T10:06:24.527Z,24.70
2019-05-02T10:08:55.673Z,26.10
2019-05-02T10:11:26.549Z,23.47
2019-05-02T10:13:58.715Z,30.53
2019-05-02T10:16:31.765Z,25.80
2019-05-02T10:19:09.400Z,26.80
2019-05-02T10:21:35.046Z,23.53
2019-05-02T10:24:05.891Z,26.87
2019-05-02T10:26:38.515Z,25.73
2019-05-02T10:29:12.843Z,22.60
2019-05-02T10:31:45.160Z,21.50
2019-05-02T10:34:19.066Z,22.50
2019-05-02T10:36:58.643Z,21.80
2019-05-02T10:39:34.098Z,26.30
2019-05-02T10:42:07.198Z,25.97
2019-05-02T10:44:42.668Z,28.30
2019-05-02T10:47:15.915Z,24.43
2019-05-02T10:53:47.139Z,19.60
2019-05-02T10:57:16.808Z,22.80
2019-05-02T11:00:38.387Z,21.27
2019-05-02T11:02:41.886Z,20.03
2019-05-02T11:03:38.120Z,22.20
2019-05-02T11:09:57.241Z,22.63
2019-05-02T11:17:13.987Z,20.43
2019-05-02T11:22:46.885Z,20.43
2019-05-02T11:25:42.143Z,18.20
2019-05-02T11:35:15.648Z,15.67
2019-05-02T11:37:56.011Z,18.90
2019-05-02T11:41:02.723Z,18.07
2019-05-02T11:47:29.594Z,17.97
2019-05-02T11:50:16.807Z,20.10
2019-05-02T11:52:52.986Z,17.40
2019-05-02T11:55:28.857Z,14.90
2019-05-02T11:58:07.489Z,17.13
2019-05-02T12:01:05.108Z,18.40
2019-05-02T12:03:42.195Z,18.60
2019-05-02T12:06:19.146Z,18.33
2019-05-02T12:09:22.347Z,17.10
2019-05-02T12:11:56.634Z,16.53
2019-05-02T12:14:39.377Z,19.43
2019-05-02T12:17:21.775Z,17.53
2019-05-02T12:23:32.037Z,16.50
2019-05-02T12:26:02.763Z,18.20
2019-05-02T12:28:36.846Z,15.97
2019-05-02T12:31:16.785Z,18.73
2019-05-02T12:33:47.539Z,14.93
2019-05-02T12:36:16.618Z,15.63
2019-05-02T12:38:45.782Z,18.93
2019-05-02T12:41:22.379Z,17.07
2019-05-02T12:43:45.795Z,15.40
2019-05-02T12:46:14.964Z,18.77
2019-05-02T12:48:45.080Z,15.93
2019-05-02T12:51:14.057Z,20.63
2019-05-02T12:53:43.040Z,17.13
2019-05-02T12:56:12.293Z,17.13
2019-05-02T12:58:42.101Z,16.40
2019-05-02T13:01:12.242Z,17.30
2019-05-02T13:03:49.076Z,17.30
2019-05-02T13:06:18.000Z,21.73
2019-05-02T13:08:52.085Z,18.50
2019-05-02T13:11:42.238Z,17.50
2019-05-02T13:14:19.072Z,16.20
2019-05-02T13:16:43.047Z,21.13
2019-05-02T13:19:12.138Z,22.40
2019-05-02T13:21:57.985Z,17.03
2019-05-02T13:24:29.109Z,19.90
2019-05-02T13:26:59.468Z,26.67
2019-05-02T13:29:27.134Z,16.20
2019-05-02T13:32:21.756Z,18.50
2019-05-02T13:35:13.828Z,17.30
2019-05-02T13:37:44.242Z,19.10
2019-05-02T13:40:22.813Z,19.10
2019-05-02T13:42:52.655Z,15.30
2019-05-02T13:45:34.601Z,16.30
2019-05-02T13:48:03.570Z,17.80
2019-05-02T13:50:32.530Z,17.03
2019-05-02T13:53:02.641Z,17.90
2019-05-02T13:55:36.221Z,15.40
2019-05-02T13:58:05.184Z,15.40
2019-05-02T14:00:43.237Z,18.60
2019-05-02T14:03:12.480Z,15.60
2019-05-02T14:05:49.331Z,19.53
2019-05-02T14:08:31.988Z,17.20
2019-05-02T14:11:18.029Z,17.47
2019-05-02T14:13:46.858Z,17.73
2019-05-02T14:16:15.663Z,20.10
2019-05-02T14:18:44.486Z,18.43
2019-05-02T14:21:13.380Z,18.07
2019-05-02T14:23:42.263Z,16.33
2019-05-02T14:26:11.703Z,19.70
2019-05-02T14:28:40.548Z,16.20
2019-05-02T14:31:09.389Z,20.17
2019-05-02T14:33:40.040Z,16.97
2019-05-02T14:36:09.009Z,16.87
2019-05-02T14:38:37.963Z,20.60
2019-05-02T14:41:22.852Z,24.23
2019-05-02T14:43:54.260Z,18.70
2019-05-02T14:46:28.881Z,18.20
2019-05-02T14:48:56.325Z,18.27
2019-05-02T14:51:27.767Z,20.03
2019-05-02T14:54:01.915Z,20.37
2019-05-02T14:56:37.612Z,23.67
2019-05-02T14:59:09.131Z,22.43
2019-05-02T15:01:36.891Z,17.23
2019-05-02T15:04:08.217Z,19.33
2019-05-02T15:06:38.290Z,20.63
2019-05-02T15:09:08.056Z,23.87
2019-05-02T15:11:42.627Z,21.53
2019-05-02T15:14:18.375Z,19.30
2019-05-02T15:16:49.740Z,21.13
2019-05-02T15:19:17.782Z,24.27
2019-05-02T15:21:54.369Z,18.03
2019-05-02T15:24:23.060Z,18.70
2019-05-02T15:26:54.695Z,22.10
2019-05-02T15:29:27.269Z,21.93
2019-05-02T15:32:18.941Z,18.30
2019-05-02T15:35:02.439Z,18.87
2019-05-02T15:37:35.630Z,21.23
2019-05-02T15:42:36.254Z,17.30
2019-05-02T15:45:06.478Z,21.30
2019-05-02T15:47:36.977Z,15.93
2019-05-02T15:50:09.340Z,18.80
2019-05-02T15:52:42.049Z,19.30
2019-05-02T15:55:12.990Z,15.60
2019-05-02T15:57:46.457Z,17.57
2019-05-02T16:00:23.137Z,16.57
2019-05-02T16:02:51.700Z,17.00
2019-05-02T16:05:23.479Z,18.90
2019-05-02T16:07:53.397Z,15.90
2019-05-02T16:10:31.614Z,16.03
2019-05-02T16:13:00.193Z,20.27
2019-05-02T16:15:29.183Z,17.53
2019-05-02T16:18:03.904Z,16.43
2019-05-02T16:20:48.693Z,15.57
2019-05-02T16:23:18.973Z,14.97
2019-05-02T16:25:47.009Z,17.60
2019-05-02T16:28:15.984Z,17.57
2019-05-02T16:30:47.576Z,14.63
2019-05-02T16:33:19.667Z,17.53
2019-05-02T16:35:52.806Z,16.40
2019-05-02T16:38:18.860Z,16.37
2019-05-02T16:40:48.777Z,20.03
2019-05-02T16:43:17.620Z,18.17
2019-05-02T16:45:46.832Z,18.67
2019-05-02T16:48:15.760Z,16.53
2019-05-02T16:50:45.063Z,18.33
2019-05-02T16:53:17.330Z,20.03
2019-05-02T16:55:44.796Z,20.90
2019-05-02T16:58:13.809Z,16.97
2019-05-02T17:00:45.491Z,16.63
2019-05-02T17:03:17.451Z,16.37
2019-05-02T17:05:45.820Z,17.00
2019-05-02T17:08:22.574Z,15.37
2019-05-02T17:10:57.049Z,19.70
2019-05-02T17:13:27.376Z,17.67
2019-05-02T17:15:57.148Z,19.73
2019-05-02T17:18:26.140Z,14.87
2019-05-02T17:20:56.779Z,16.20
2019-05-02T17:23:25.681Z,19.13
2019-05-02T17:25:54.708Z,17.47
2019-05-02T17:28:24.606Z,20.17
2019-05-02T17:30:53.540Z,19.93
2019-05-02T17:33:22.530Z,20.43
2019-05-02T17:35:54.379Z,20.17
2019-05-02T17:38:29.051Z,21.80
2019-05-02T17:40:59.378Z,21.60
2019-05-02T17:43:25.464Z,20.37
2019-05-02T17:45:56.749Z,18.13
2019-05-02T17:48:25.708Z,21.43
2019-05-02T17:51:19.613Z,20.93
2019-05-02T17:53:50.082Z,19.13
2019-05-02T17:56:20.462Z,21.20
2019-05-02T17:58:56.560Z,21.67
2019-05-02T18:01:33.409Z,22.73
2019-05-02T18:04:01.989Z,20.20
2019-05-02T18:06:34.986Z,21.27
2019-05-02T18:09:01.804Z,22.37
2019-05-02T18:11:36.446Z,18.93
2019-05-02T18:14:04.221Z,18.97
2019-05-02T18:16:33.264Z,19.80
2019-05-02T18:19:03.212Z,20.40
2019-05-02T18:21:32.417Z,18.97
2019-05-02T18:24:06.013Z,20.40
2019-05-02T18:26:35.656Z,20.13
2019-05-02T18:29:06.877Z,22.73
2019-05-02T18:31:40.084Z,18.00
2019-05-02T18:34:25.248Z,21.50
2019-05-02T18:37:03.071Z,22.17
2019-05-02T18:40:11.991Z,19.43
2019-05-02T18:48:18.805Z,21.80
2019-05-02T18:50:06.125Z,19.20
2019-05-02T18:52:43.100Z,21.00
2019-05-02T18:55:34.699Z,26.20
2019-05-02T18:58:53.345Z,23.83
2019-05-02T19:01:52.668Z,19.43
2019-05-02T19:05:19.210Z,24.32
2019-05-02T19:08:04.299Z,21.50
2019-05-02T19:11:04.753Z,22.10
2019-05-02T19:13:47.364Z,21.80
2019-05-02T19:16:45.164Z,25.40
2019-05-02T19:19:22.493Z,19.23
2019-05-02T19:21:54.100Z,24.10
2019-05-02T19:24:34.989Z,25.47
2019-05-02T19:27:02.954Z,20.33
2019-05-02T19:29:33.238Z,23.90
2019-05-02T19:32:12.244Z,24.87
2019-05-02T19:34:41.897Z,25.87
2019-05-02T19:37:15.804Z,25.53
2019-05-02T19:39:48.746Z,22.53
2019-05-02T19:42:24.590Z,28.92
2019-05-02T19:44:52.639Z,26.03
2019-05-02T19:47:22.094Z,32.93
2019-05-02T19:49:55.366Z,26.30
2019-05-02T19:52:28.576Z,31.30
2019-05-02T19:54:58.836Z,31.67
2019-05-02T19:57:27.309Z,30.03
2019-05-02T19:59:57.198Z,32.23
2019-05-02T20:02:27.017Z,34.50
2019-05-02T20:04:56.014Z,38.87
2019-05-02T20:07:25.729Z,36.47
2019-05-02T20:09:54.900Z,34.70
2019-05-02T20:12:26.973Z,35.80
2019-05-02T20:14:55.820Z,37.67
2019-05-02T20:17:24.777Z,35.13
2019-05-02T20:19:57.694Z,39.40
2019-05-02T20:22:26.775Z,39.63
2019-05-02T20:25:00.190Z,40.83
2019-05-02T20:27:29.758Z,43.33
2019-05-02T20:30:03.239Z,35.00
2019-05-02T20:32:32.344Z,39.63
2019-05-02T20:35:07.990Z,44.60
2019-05-02T20:37:37.061Z,43.37
2019-05-02T20:40:06.289Z,44.47
2019-05-02T20:42:35.586Z,46.00
2019-05-02T20:45:06.005Z,45.43
2019-05-02T20:47:35.040Z,39.50
2019-05-02T20:50:05.925Z,43.90
2019-05-02T20:52:37.020Z,49.00
2019-05-02T20:55:07.638Z,43.28
2019-05-02T20:57:36.612Z,50.70
2019-05-02T21:00:06.072Z,48.27
2019-05-02T21:02:38.069Z,48.20
2019-05-02T21:05:08.810Z,46.27
2019-05-02T21:07:56.335Z,50.12
2019-05-02T21:10:34.770Z,52.33
2019-05-02T21:13:04.177Z,46.63
2019-05-02T21:15:33.225Z,53.40
2019-05-02T21:18:02.407Z,49.47
2019-05-02T21:20:32.519Z,56.02
2019-05-02T21:23:01.993Z,55.58
2019-05-02T21:25:32.644Z,51.73
2019-05-02T21:28:02.856Z,49.60
2019-05-02T21:30:34.616Z,51.17
2019-05-02T21:33:04.205Z,54.50
2019-05-02T21:35:34.197Z,48.03
2019-05-02T21:38:04.285Z,68.53
2019-05-02T21:40:33.234Z,58.23
2019-05-02T21:43:02.526Z,63.70
2019-05-02T21:45:32.568Z,52.43
2019-05-02T21:48:02.299Z,63.20
2019-05-02T21:50:48.762Z,52.80
2019-05-02T21:53:54.990Z,60.17
2019-05-02T21:56:23.548Z,52.53
2019-05-02T21:59:08.468Z,56.35
2019-05-02T22:01:48.297Z,60.53
2019-05-02T22:04:17.280Z,56.10
2019-05-02T22:06:49.375Z,53.53
2019-05-02T22:09:19.313Z,52.20
2019-05-02T22:11:48.209Z,56.37
2019-05-02T22:14:17.571Z,63.55
2019-05-02T22:16:46.628Z,51.18
2019-05-02T22:19:15.494Z,54.70
2019-05-02T22:21:44.609Z,51.58
2019-05-02T22:24:14.402Z,55.27
2019-05-02T22:26:43.686Z,65.27
2019-05-02T22:29:12.858Z,53.87
2019-05-02T22:31:44.002Z,56.05
2019-05-02T22:34:13.080Z,60.60
2019-05-02T22:36:42.246Z,57.90
2019-05-02T22:39:28.823Z,53.63
2019-05-02T22:41:57.708Z,58.30
2019-05-02T22:44:26.784Z,52.87
2019-05-02T22:46:55.692Z,53.43
2019-05-02T22:49:24.651Z,53.95
2019-05-02T22:51:53.637Z,61.33
2019-05-02T22:54:27.692Z,56.60
2019-05-02T22:56:53.253Z,58.03
2019-05-02T22:59:23.960Z,54.63
2019-05-02T23:01:52.971Z,59.93
2019-05-02T23:04:23.597Z,52.67
2019-05-02T23:06:53.031Z,61.40
2019-05-02T23:09:22.183Z,56.73
2019-05-02T23:11:51.840Z,53.40
2019-05-02T23:14:22.157Z,55.03
2019-05-02T23:16:52.801Z,53.27
2019-05-02T23:19:23.022Z,51.40
2019-05-02T23:21:52.697Z,54.80
2019-05-02T23:24:39.057Z,52.88
2019-05-02T23:27:22.377Z,47.07
2019-05-02T23:29:51.993Z,58.10
2019-05-02T23:32:23.623Z,49.10
2019-05-02T23:34:52.382Z,51.07
2019-05-02T23:37:21.364Z,45.07
2019-05-02T23:39:52.507Z,55.43
2019-05-02T23:42:21.870Z,55.35
2019-05-02T23:44:51.937Z,51.28
2019-05-02T23:47:22.459Z,46.50
2019-05-02T23:49:52.041Z,52.58
2019-05-02T23:52:22.505Z,48.10
2019-05-02T23:54:52.429Z,48.33
2019-05-02T23:57:22.976Z,49.47
2019-05-02T23:59:52.100Z,43.10
